Time;durP1;ratioP1;P1;durP2;ratioP2;P2;SDS_P1;SDS_P2;PMS_P1;PMS_P2;Temp;Humidity;BMP_temperature;BMP_pressure;BME280_temperature;BME280_humidity;BME280_pressure;Samples;Min_cycle;Max_cycle;Signal;HPM_P1;HPM_P2
2022/05/17 00:00:47;;;;;;;0.00;0.00;;;15.70;99.90;;;;;;5077981;28;20051;-81
2022/05/17 00:03:14;;;;;;;0.00;0.00;;;15.80;99.90;;;;;;5074349;28;20038;-81
2022/05/17 00:05:42;;;;;;;0.00;0.00;;;15.80;99.90;;;;;;5055393;28;20456;-82
2022/05/17 00:08:11;;;;;;;0.00;0.00;;;15.90;99.90;;;;;;5073398;28;20024;-81
2022/05/17 00:10:38;;;;;;;0.00;0.00;;;15.90;99.90;;;;;;5073753;28;20548;-82
2022/05/17 00:13:04;;;;;;;0.00;0.00;;;15.90;99.90;;;;;;5056243;28;20025;-82
2022/05/17 00:15:31;;;;;;;0.00;0.00;;;16.00;99.90;;;;;;5056903;28;20032;-82
2022/05/17 00:17:57;;;;;;;0.00;0.00;;;16.00;99.90;;;;;;5074538;28;20021;-82
2022/05/17 00:20:24;;;;;;;0.00;0.00;;;16.00;99.90;;;;;;5057276;28;20039;-81
2022/05/17 00:22:51;;;;;;;0.00;0.00;;;15.90;99.90;;;;;;5073867;28;20028;-81
2022/05/17 00:25:20;;;;;;;0.00;0.00;;;16.00;99.90;;;;;;5075001;28;20519;-83
2022/05/17 00:27:46;;;;;;;0.00;0.00;;;16.10;99.90;;;;;;5072724;28;20016;-82
2022/05/17 00:30:14;;;;;;;0.00;0.00;;;16.30;99.90;;;;;;5085551;28;20035;-82
2022/05/17 00:32:40;;;;;;;0.00;0.00;;;16.60;99.90;;;;;;5083515;28;20072;-82
2022/05/17 00:35:08;;;;;;;0.00;0.00;;;17.10;99.90;;;;;;5076466;28;20064;-82
2022/05/17 00:37:36;;;;;;;0.00;0.00;;;17.30;99.90;;;;;;5078537;28;20073;-82
2022/05/17 00:40:04;;;;;;;0.00;0.00;;;17.70;99.90;;;;;;5077248;28;20068;-83
2022/05/17 00:42:30;;;;;;;0.00;0.00;;;18.40;99.90;;;;;;5074244;28;20115;-82
2022/05/17 00:44:56;;;;;;;0.00;0.00;;;19.10;99.90;;;;;;5070714;28;20029;-82
2022/05/17 00:47:25;;;;;;;0.00;0.00;;;19.50;99.90;;;;;;5052414;28;20020;-82
2022/05/17 00:50:03;;;;;;;0.00;0.00;;;19.90;99.90;;;;;;5055044;28;20024;-82
2022/05/17 00:52:44;;;;;;;0.00;0.00;;;20.40;99.90;;;;;;5072183;28;20029;-84
2022/05/17 00:55:36;;;;;;;0.00;0.00;;;20.90;99.90;;;;;;5068454;28;20132;-83
2022/05/17 00:58:27;;;;;;;0.00;0.00;;;21.90;99.90;;;;;;5060755;28;20036;-84
2022/05/17 01:01:16;;;;;;;0.00;0.00;;;22.90;99.90;;;;;;5066595;28;20064;-84
2022/05/17 01:04:21;;;;;;;0.03;0.03;;;23.50;90.20;;;;;;5075804;28;20098;-83
2022/05/17 01:06:57;;;;;;;0.00;0.00;;;24.00;86.20;;;;;;5048469;28;20040;-83
2022/05/17 01:09:24;;;;;;;0.10;0.10;;;24.40;80.50;;;;;;5051889;28;20028;-83
2022/05/17 01:11:50;;;;;;;0.00;0.00;;;24.50;78.90;;;;;;5072421;28;20024;-82
2022/05/17 01:17:03;;;;;;;0.17;0.17;;;24.80;74.50;;;;;;5071947;28;20089;-84
2022/05/17 01:19:29;;;;;;;0.38;0.38;;;24.80;71.00;;;;;;5069395;28;20051;-83
2022/05/17 01:21:55;;;;;;;0.00;0.00;;;24.70;71.80;;;;;;5070419;28;20016;-84
2022/05/17 01:24:22;;;;;;;0.03;0.03;;;24.50;75.60;;;;;;5054198;28;20138;-83
2022/05/17 01:26:57;;;;;;;0.00;0.00;;;23.90;76.80;;;;;;5071591;28;20020;-82
2022/05/17 01:29:23;;;;;;;0.25;0.25;;;23.90;73.40;;;;;;5071553;28;20112;-84
2022/05/17 01:31:51;;;;;;;0.00;0.00;;;23.80;72.40;;;;;;5073485;28;20416;-82
2022/05/17 01:34:20;;;;;;;0.00;0.00;;;24.40;69.20;;;;;;5070349;28;20471;-83
2022/05/17 01:36:47;;;;;;;0.00;0.00;;;25.00;67.80;;;;;;5072801;28;20051;-82
2022/05/17 01:39:13;;;;;;;0.38;0.38;;;24.90;67.40;;;;;;5056483;28;20032;-82
2022/05/17 01:41:39;;;;;;;0.10;0.10;;;24.20;71.20;;;;;;5051507;28;20086;-82
2022/05/17 01:44:05;;;;;;;0.10;0.10;;;23.40;75.40;;;;;;5050336;28;20062;-81
2022/05/17 01:46:31;;;;;;;11.77;1.02;;;22.70;82.90;;;;;;5086221;28;20027;-81
2022/05/17 01:48:58;;;;;;;0.10;0.10;;;22.60;84.40;;;;;;5079310;28;20510;-81
2022/05/17 01:51:24;;;;;;;1.38;1.27;;;22.60;89.00;;;;;;5084191;28;20016;-81
2022/05/17 01:53:50;;;;;;;1.77;1.15;;;22.60;86.30;;;;;;5073176;28;20056;-82
2022/05/17 01:56:16;;;;;;;4.03;2.53;;;22.90;79.40;;;;;;5072894;28;20053;-83
2022/05/17 01:58:42;;;;;;;0.00;0.00;;;23.00;78.70;;;;;;5073908;28;20097;-83
2022/05/17 02:01:10;;;;;;;1.08;0.85;;;22.40;83.10;;;;;;5054761;28;20039;-84
2022/05/17 02:03:36;;;;;;;1.70;1.48;;;22.10;84.60;;;;;;5067254;28;20047;-83
2022/05/17 02:06:03;;;;;;;0.00;0.00;;;22.60;83.10;;;;;;5070245;28;20044;-83
2022/05/17 02:08:30;;;;;;;0.00;0.00;;;22.90;80.40;;;;;;5072406;28;20032;-83
2022/05/17 02:10:56;;;;;;;0.25;0.25;;;23.40;77.80;;;;;;5067833;28;20082;-82
2022/05/17 02:13:22;;;;;;;0.38;0.38;;;23.50;75.30;;;;;;5061357;28;20035;-82
2022/05/17 02:15:48;;;;;;;0.68;0.68;;;23.40;73.70;;;;;;5075099;28;20201;-81
2022/05/17 02:18:14;;;;;;;0.00;0.00;;;24.10;71.40;;;;;;5068278;28;20029;-83
2022/05/17 02:20:40;;;;;;;0.00;0.00;;;24.60;67.40;;;;;;5074517;28;20387;-82
2022/05/17 02:23:07;;;;;;;0.28;0.22;;;24.70;66.20;;;;;;5073633;28;20033;-82
2022/05/17 02:25:37;;;;;;;0.10;0.10;;;25.30;66.40;;;;;;5062356;28;20471;-82
2022/05/17 02:28:05;;;;;;;4.68;3.85;;;25.20;63.10;;;;;;5073298;28;20036;-82
2022/05/17 02:30:31;;;;;;;1.67;1.58;;;24.90;63.30;;;;;;5054943;28;20032;-82
2022/05/17 02:32:58;;;;;;;1.88;0.73;;;25.00;63.00;;;;;;5080706;28;20025;-82
2022/05/17 02:35:30;;;;;;;0.63;0.38;;;24.60;63.50;;;;;;5068483;28;20028;-82
2022/05/17 02:37:56;;;;;;;0.45;0.45;;;24.80;64.50;;;;;;5064351;28;20025;-82
2022/05/17 02:40:22;;;;;;;0.63;0.60;;;26.00;63.90;;;;;;5070212;28;20353;-83
2022/05/17 02:42:48;;;;;;;3.10;1.67;;;27.10;58.70;;;;;;5065083;28;20502;-83
2022/05/17 02:45:14;;;;;;;0.63;0.63;;;26.10;56.80;;;;;;5080624;28;20050;-80
2022/05/17 02:47:40;;;;;;;0.43;0.30;;;25.10;59.10;;;;;;5072648;28;20410;-82
2022/05/17 02:50:13;;;;;;;1.60;1.50;;;24.90;61.20;;;;;;5072131;28;20650;-81
2022/05/17 02:52:39;;;;;;;0.88;0.88;;;24.80;60.70;;;;;;5064544;28;20043;-81
2022/05/17 02:55:06;;;;;;;1.23;0.47;;;25.40;59.60;;;;;;5051838;28;20072;-83
2022/05/17 02:57:35;;;;;;;0.30;0.30;;;25.70;58.70;;;;;;5079124;28;20123;-81
2022/05/17 03:03:57;;;;;;;0.77;0.68;;;25.60;58.10;;;;;;5018895;28;20042;-82
2022/05/17 03:06:24;;;;;;;4.28;3.90;;;25.60;57.40;;;;;;4946074;29;20044;-83
2022/05/17 03:08:50;;;;;;;2.22;2.00;;;25.60;56.60;;;;;;4993128;28;20073;-81
2022/05/17 03:11:24;;;;;;;0.80;0.65;;;25.60;57.20;;;;;;5003114;28;20034;-83
2022/05/17 03:13:52;;;;;;;0.10;0.10;;;25.90;56.90;;;;;;5045735;28;20124;-83
2022/05/17 03:16:20;;;;;;;0.00;0.00;;;26.30;56.10;;;;;;5067652;28;20185;-82
2022/05/17 03:18:47;;;;;;;4.85;3.85;;;26.80;55.60;;;;;;5064012;28;20039;-82
2022/05/17 03:21:28;;;;;;;0.80;0.47;;;26.60;54.50;;;;;;5071219;28;20165;-84
2022/05/17 03:23:57;;;;;;;1.15;1.08;;;26.50;55.20;;;;;;5050352;28;20035;-81
2022/05/17 03:26:26;;;;;;;2.70;2.60;;;26.80;55.40;;;;;;5065386;28;20032;-84
2022/05/17 03:29:01;;;;;;;0.00;0.00;;;27.10;55.10;;;;;;5051793;28;20468;-83
2022/05/17 03:31:36;;;;;;;4.20;2.58;;;28.10;53.40;;;;;;5069619;28;20056;-85
2022/05/17 03:34:04;;;;;;;1.98;0.70;;;28.20;52.30;;;;;;5068178;28;20033;-82
2022/05/17 03:36:36;;;;;;;2.38;1.10;;;27.20;54.30;;;;;;5063605;28;20029;-85
2022/05/17 03:39:02;;;;;;;5.93;0.75;;;26.30;54.50;;;;;;5067605;28;20034;-84
2022/05/17 03:41:28;;;;;;;1.02;1.02;;;25.70;57.00;;;;;;5052744;28;20463;-84
2022/05/17 03:43:55;;;;;;;0.00;0.00;;;25.40;57.70;;;;;;5069998;28;20029;-85
2022/05/17 03:46:21;;;;;;;3.60;2.58;;;25.50;57.60;;;;;;5066827;28;20029;-81
2022/05/17 03:49:37;;;;;;;0.93;0.60;;;25.30;56.30;;;;;;5058803;28;20032;-83
2022/05/17 03:52:04;;;;;;;4.32;2.03;;;24.60;57.20;;;;;;5018546;28;20086;-83
2022/05/17 03:54:39;;;;;;;1.60;0.47;;;24.30;59.00;;;;;;5051363;28;20143;-83
2022/05/17 03:57:11;;;;;;;0.00;0.00;;;24.30;58.00;;;;;;5063933;28;20028;-83
2022/05/17 03:59:46;;;;;;;2.53;2.05;;;24.20;58.90;;;;;;5073739;28;20017;-83
2022/05/17 04:02:15;;;;;;;0.00;0.00;;;24.20;58.90;;;;;;5061342;28;20077;-80
2022/05/17 04:04:45;;;;;;;1.55;0.75;;;24.20;59.10;;;;;;5082122;28;20032;-80
2022/05/17 04:07:14;;;;;;;0.43;0.20;;;24.30;58.30;;;;;;5056135;28;20044;-81
2022/05/17 04:09:41;;;;;;;6.32;1.35;;;24.10;59.90;;;;;;5067303;28;20025;-79
2022/05/17 04:12:07;;;;;;;0.00;0.00;;;24.20;59.80;;;;;;5053133;28;20490;-80
2022/05/17 04:14:34;;;;;;;0.75;0.75;;;24.30;60.10;;;;;;5069183;28;20133;-81
2022/05/17 04:17:10;;;;;;;0.20;0.20;;;24.30;60.50;;;;;;5069117;28;20032;-81
2022/05/17 04:19:37;;;;;;;0.28;0.28;;;24.50;61.30;;;;;;5064174;28;20043;-81
2022/05/17 04:22:08;;;;;;;1.60;0.98;;;24.40;61.70;;;;;;5047905;28;20047;-81
2022/05/17 04:24:34;;;;;;;6.43;3.50;;;24.20;63.30;;;;;;5065190;28;20033;-80
2022/05/17 04:27:00;;;;;;;0.30;0.30;;;24.40;62.20;;;;;;5043823;28;20028;-80
2022/05/17 04:29:27;;;;;;;0.20;0.17;;;24.60;62.50;;;;;;5059801;28;20025;-79
2022/05/17 04:31:53;;;;;;;2.35;0.80;;;24.20;64.70;;;;;;5063093;28;20043;-80
2022/05/17 04:34:19;;;;;;;0.43;0.25;;;24.70;62.90;;;;;;5063927;28;20034;-81
2022/05/17 04:36:46;;;;;;;0.13;0.13;;;24.80;62.70;;;;;;5050388;28;20059;-81
2022/05/17 04:39:12;;;;;;;1.35;0.75;;;24.70;61.20;;;;;;5060563;28;20021;-81
2022/05/17 04:41:38;;;;;;;0.93;0.68;;;24.80;61.60;;;;;;5045110;28;20029;-81
2022/05/17 04:44:05;;;;;;;0.08;0.08;;;24.70;61.80;;;;;;5066138;28;20037;-80
2022/05/17 04:46:31;;;;;;;0.00;0.00;;;24.60;62.10;;;;;;5049745;28;20111;-80
2022/05/17 04:48:57;;;;;;;1.55;0.55;;;24.60;61.00;;;;;;5064941;28;20224;-81
2022/05/17 04:51:23;;;;;;;0.68;0.68;;;24.60;62.60;;;;;;5066423;28;20016;-81
2022/05/17 04:53:49;;;;;;;0.00;0.00;;;24.70;62.90;;;;;;5068204;28;20044;-81
2022/05/17 04:56:15;;;;;;;0.65;0.65;;;24.30;63.60;;;;;;5067053;28;20107;-80
2022/05/17 04:58:44;;;;;;;0.45;0.45;;;24.40;65.10;;;;;;5063943;28;20043;-80
2022/05/17 05:01:10;;;;;;;1.55;1.45;;;24.50;66.30;;;;;;5059783;28;20023;-80
2022/05/17 05:03:37;;;;;;;0.40;0.20;;;24.50;65.90;;;;;;5073550;28;20039;-80
2022/05/17 05:06:03;;;;;;;5.85;0.65;;;24.50;66.90;;;;;;5057954;28;20509;-80
2022/05/17 05:08:29;;;;;;;1.08;0.57;;;24.80;64.30;;;;;;5066764;28;20492;-80
2022/05/17 05:10:56;;;;;;;0.00;0.00;;;24.60;63.70;;;;;;5061369;28;20025;-80
2022/05/17 05:13:29;;;;;;;0.20;0.20;;;24.30;63.80;;;;;;5063749;28;20031;-81
2022/05/17 05:15:58;;;;;;;1.08;0.08;;;24.50;61.60;;;;;;5045715;28;20449;-80
2022/05/17 05:18:27;;;;;;;1.70;1.20;;;24.60;62.10;;;;;;5063310;28;20108;-83
2022/05/17 05:21:48;;;;;;;1.38;0.80;;;24.70;62.60;;;;;;5063767;28;20027;-81
2022/05/17 05:24:24;;;;;;;11.20;0.70;;;24.80;62.50;;;;;;5062873;28;20049;-82
2022/05/17 05:27:54;;;;;;;0.77;0.25;;;24.70;60.80;;;;;;5065319;28;20067;-82
2022/05/17 05:30:20;;;;;;;0.20;0.20;;;24.60;63.10;;;;;;5061675;28;20032;-82
2022/05/17 05:32:49;;;;;;;1.05;0.52;;;24.80;62.60;;;;;;5064356;28;21522;-82
2022/05/17 05:35:17;;;;;;;2.50;1.00;;;25.10;62.10;;;;;;5060012;28;20399;-80
2022/05/17 05:37:43;;;;;;;1.55;1.55;;;25.20;61.70;;;;;;5063900;28;20095;-81
2022/05/17 05:40:16;;;;;;;6.05;2.17;;;24.90;61.10;;;;;;5043681;28;20329;-81
2022/05/17 05:42:42;;;;;;;1.08;0.63;;;24.90;60.10;;;;;;5062779;28;20082;-80
2022/05/17 05:45:10;;;;;;;1.50;1.40;;;25.00;59.70;;;;;;5072214;28;20028;-83
2022/05/17 05:47:40;;;;;;;1.17;1.13;;;25.10;59.50;;;;;;5050880;28;20028;-82
2022/05/17 05:50:07;;;;;;;0.75;0.75;;;25.00;59.60;;;;;;5042898;28;20078;-81
2022/05/17 05:52:34;;;;;;;2.22;2.08;;;24.60;60.30;;;;;;5047813;28;20024;-82
2022/05/17 05:55:04;;;;;;;2.17;1.38;;;25.00;59.60;;;;;;5031909;28;20064;-83
2022/05/17 05:57:30;;;;;;;16.00;0.80;;;25.10;58.30;;;;;;5046022;28;20024;-83
2022/05/17 05:59:57;;;;;;;0.43;0.35;;;24.90;58.20;;;;;;5025631;28;20029;-82
2022/05/17 06:02:23;;;;;;;0.30;0.30;;;25.10;56.70;;;;;;5024902;28;20500;-82
2022/05/17 06:04:49;;;;;;;7.93;0.70;;;25.00;56.20;;;;;;5053076;28;20115;-83
2022/05/17 06:07:15;;;;;;;0.98;0.50;;;25.00;56.90;;;;;;5045989;28;20025;-81
2022/05/17 06:09:41;;;;;;;0.00;0.00;;;25.20;55.80;;;;;;5047901;28;20032;-81
2022/05/17 06:12:08;;;;;;;1.95;1.85;;;25.30;56.40;;;;;;5026451;28;20040;-82
2022/05/17 06:14:37;;;;;;;1.75;0.75;;;25.40;56.00;;;;;;5047627;28;20025;-83
2022/05/17 06:17:04;;;;;;;1.42;0.75;;;25.40;55.70;;;;;;5046615;28;20029;-82
2022/05/17 06:19:33;;;;;;;1.10;0.65;;;25.10;56.00;;;;;;5043264;28;20036;-82
2022/05/17 06:22:00;;;;;;;0.00;0.00;;;24.90;55.60;;;;;;5023363;28;20052;-83
2022/05/17 06:24:45;;;;;;;0.88;0.85;;;24.80;55.40;;;;;;5026779;28;20065;-82
2022/05/17 06:27:11;;;;;;;1.20;0.85;;;25.00;56.40;;;;;;5056697;28;20031;-82
2022/05/17 06:29:45;;;;;;;0.00;0.00;;;25.40;55.30;;;;;;5046692;28;20065;-84
2022/05/17 06:32:15;;;;;;;0.00;0.00;;;25.40;54.90;;;;;;5044879;28;20149;-81
2022/05/17 06:34:43;;;;;;;3.40;1.40;;;25.60;54.90;;;;;;5041535;28;20041;-82
2022/05/17 06:37:10;;;;;;;2.10;1.92;;;25.70;54.00;;;;;;5042665;28;20086;-83
2022/05/17 06:39:36;;;;;;;0.00;0.00;;;25.60;52.60;;;;;;5043155;28;20024;-81
2022/05/17 06:42:03;;;;;;;0.00;0.00;;;25.60;52.40;;;;;;5046430;28;20057;-80
2022/05/17 06:44:41;;;;;;;7.78;1.00;;;25.40;51.80;;;;;;5045154;28;20036;-82
2022/05/17 06:47:08;;;;;;;4.07;2.55;;;25.50;53.90;;;;;;5048168;28;20026;-84
2022/05/17 06:49:37;;;;;;;1.90;0.98;;;25.70;55.00;;;;;;5049932;28;20031;-84
2022/05/17 06:52:04;;;;;;;0.38;0.38;;;25.70;52.50;;;;;;5025955;28;20542;-82
2022/05/17 06:54:30;;;;;;;3.03;1.58;;;25.70;53.40;;;;;;5052889;28;20048;-83
2022/05/17 06:57:06;;;;;;;0.85;0.70;;;25.80;53.80;;;;;;5046561;28;20471;-83
2022/05/17 06:59:37;;;;;;;0.43;0.35;;;25.90;53.30;;;;;;5069988;28;20033;-83
2022/05/17 07:02:04;;;;;;;0.25;0.25;;;25.80;51.50;;;;;;5073418;28;20049;-82
2022/05/17 07:04:32;;;;;;;0.85;0.60;;;25.80;53.10;;;;;;5066169;28;20040;-84
2022/05/17 07:06:59;;;;;;;0.08;0.08;;;26.00;53.70;;;;;;5046621;28;20028;-84
2022/05/17 07:09:27;;;;;;;0.00;0.00;;;26.10;52.90;;;;;;5066755;28;20029;-83
2022/05/17 07:14:55;;;;;;;0.17;0.17;;;26.40;51.20;;;;;;5066157;28;20075;-82
2022/05/17 07:17:22;;;;;;;24.73;3.40;;;25.90;51.90;;;;;;5071365;28;20037;-82
2022/05/17 07:19:51;;;;;;;0.10;0.10;;;25.80;52.10;;;;;;5068199;28;20056;-84
2022/05/17 07:22:17;;;;;;;0.77;0.70;;;25.80;52.80;;;;;;5076574;28;20021;-83
2022/05/17 07:24:45;;;;;;;0.00;0.00;;;25.50;53.30;;;;;;5052850;28;20348;-84
2022/05/17 07:27:47;;;;;;;;;;;;;;;;;;;;;
2022/05/17 07:30:14;;;;;;;0.95;0.68;;;25.60;52.30;;;;;;5068354;28;20325;-82
2022/05/17 07:32:43;;;;;;;0.00;0.00;;;26.10;52.40;;;;;;5067747;28;20120;-83
2022/05/17 07:35:12;;;;;;;1.20;0.70;;;26.30;52.30;;;;;;5067793;28;20036;-82
2022/05/17 07:37:41;;;;;;;2.13;1.23;;;26.00;52.40;;;;;;5067702;28;20025;-83
2022/05/17 07:40:08;;;;;;;0.08;0.08;;;25.90;52.30;;;;;;5065269;28;20136;-82
2022/05/17 07:42:35;;;;;;;0.95;0.88;;;26.00;49.80;;;;;;5046563;28;20036;-83
2022/05/17 07:45:01;;;;;;;0.50;0.17;;;25.80;50.30;;;;;;5064972;28;20029;-82
2022/05/17 07:47:27;;;;;;;0.65;0.40;;;25.60;50.50;;;;;;5067181;28;20036;-82
2022/05/17 07:49:53;;;;;;;0.00;0.00;;;26.00;50.60;;;;;;5066214;28;20047;-83
2022/05/17 07:52:19;;;;;;;0.00;0.00;;;26.10;51.30;;;;;;5063184;28;20025;-82
2022/05/17 07:54:45;;;;;;;1.77;0.75;;;25.90;50.10;;;;;;5065617;28;20119;-82
2022/05/17 07:57:11;;;;;;;0.00;0.00;;;26.20;50.30;;;;;;5062156;28;20062;-82
2022/05/17 07:59:37;;;;;;;0.10;0.10;;;26.60;48.90;;;;;;5062875;28;20040;-83
2022/05/17 08:02:03;;;;;;;0.65;0.40;;;26.70;48.10;;;;;;5065775;28;20051;-82
2022/05/17 08:04:30;;;;;;;2.95;0.98;;;26.40;49.20;;;;;;5063784;28;20041;-81
2022/05/17 08:06:56;;;;;;;0.00;0.00;;;26.30;50.30;;;;;;5069524;28;20020;-82
2022/05/17 08:09:26;;;;;;;20.58;5.05;;;26.20;49.90;;;;;;5066661;28;20383;-83
2022/05/17 08:11:53;;;;;;;0.00;0.00;;;26.60;49.10;;;;;;5050363;28;20032;-82
2022/05/17 08:14:19;;;;;;;0.00;0.00;;;27.00;47.50;;;;;;5069550;28;20287;-82
2022/05/17 08:16:46;;;;;;;1.02;1.02;;;27.00;47.80;;;;;;5067325;28;20051;-83
2022/05/17 08:19:12;;;;;;;0.50;0.30;;;26.70;47.30;;;;;;5050424;28;20060;-82
2022/05/17 08:21:39;;;;;;;0.55;0.38;;;26.80;48.20;;;;;;5049993;28;20028;-83
2022/05/17 08:24:08;;;;;;;0.43;0.43;;;26.70;46.50;;;;;;5062989;28;20029;-83
2022/05/17 08:29:19;;;;;;;0.00;0.00;;;26.90;46.70;;;;;;5062191;28;20023;-82
2022/05/17 08:34:30;;;;;;;0.08;0.08;;;27.10;46.00;;;;;;5065327;28;20079;-84
2022/05/17 08:36:56;;;;;;;1.42;1.33;;;27.20;44.90;;;;;;5060906;28;20119;-84
2022/05/17 08:39:28;;;;;;;0.00;0.00;;;27.20;43.80;;;;;;5064940;28;20016;-82
2022/05/17 08:41:59;;;;;;;1.10;0.85;;;27.40;43.70;;;;;;5047251;28;20031;-81
2022/05/17 08:45:02;;;;;;;0.00;0.00;;;27.60;44.80;;;;;;5059905;28;20108;-83
2022/05/17 08:47:52;;;;;;;0.08;0.08;;;27.10;42.20;;;;;;5046187;28;20047;-83
2022/05/17 08:50:35;;;;;;;0.15;0.15;;;27.20;44.20;;;;;;5063470;28;20036;-82
2022/05/17 08:53:04;;;;;;;0.08;0.08;;;27.10;45.70;;;;;;5061218;28;20141;-82
2022/05/17 08:56:06;;;;;;;0.00;0.00;;;27.20;44.40;;;;;;5065162;28;20135;-82
2022/05/17 08:58:33;;;;;;;0.00;0.00;;;27.30;45.20;;;;;;5033758;28;20033;-82
2022/05/17 09:01:07;;;;;;;0.00;0.00;;;27.20;43.90;;;;;;5045556;28;20146;-82
2022/05/17 09:04:00;;;;;;;;;;;;;;;;;;;;;
2022/05/17 09:06:32;;;;;;;0.47;0.47;;;27.50;43.50;;;;;;5058298;28;20390;-83
2022/05/17 09:09:09;;;;;;;0.00;0.00;;;27.30;40.80;;;;;;5059872;28;20032;-83
2022/05/17 09:11:50;;;;;;;0.00;0.00;;;27.20;42.00;;;;;;5047161;28;20028;-82
2022/05/17 09:14:41;;;;;;;3.88;3.72;;;27.40;40.20;;;;;;5059273;28;20097;-84
2022/05/17 09:17:28;;;;;;;0.28;0.28;;;27.70;39.40;;;;;;5061041;28;20032;-82
2022/05/17 09:20:28;;;;;;;0.90;0.85;;;28.00;40.50;;;;;;5058567;28;20572;-85
2022/05/17 09:23:00;;;;;;;0.25;0.25;;;28.20;40.70;;;;;;5041473;28;20323;-83
2022/05/17 09:26:00;;;;;;;0.20;0.20;;;27.70;41.60;;;;;;5041497;28;21359;-82
2022/05/17 09:28:47;;;;;;;0.22;0.22;;;28.00;40.90;;;;;;5057235;28;20021;-83
2022/05/17 09:31:30;;;;;;;0.00;0.00;;;28.10;40.90;;;;;;5065640;28;20052;-83
2022/05/17 09:34:06;;;;;;;0.00;0.00;;;28.20;41.00;;;;;;5052734;28;20028;-81
2022/05/17 09:36:49;;;;;;;0.00;0.00;;;28.10;40.20;;;;;;5050403;28;20073;-81
2022/05/17 09:39:38;;;;;;;0.10;0.10;;;27.30;39.80;;;;;;5061997;28;20406;-81
2022/05/17 09:42:16;;;;;;;0.00;0.00;;;27.30;42.10;;;;;;5049009;28;20407;-82
2022/05/17 09:44:44;;;;;;;0.00;0.00;;;27.60;41.20;;;;;;5068594;28;20036;-82
2022/05/17 09:47:27;;;;;;;0.00;0.00;;;27.90;39.60;;;;;;5067968;28;20021;-81
2022/05/17 09:52:52;;;;;;;0.00;0.00;;;28.20;36.90;;;;;;5058014;28;20223;-82
2022/05/17 09:55:31;;;;;;;0.00;0.00;;;28.50;38.90;;;;;;5060314;28;20041;-83
2022/05/17 09:58:29;;;;;;;0.00;0.00;;;28.00;40.20;;;;;;5045199;28;20028;-82
2022/05/17 10:00:56;;;;;;;3.10;1.60;;;28.10;41.50;;;;;;5056801;28;20040;-83
2022/05/17 10:03:32;;;;;;;0.28;0.28;;;27.90;42.00;;;;;;5061653;28;20024;-82
2022/05/17 10:06:21;;;;;;;0.00;0.00;;;27.80;42.90;;;;;;5061896;28;20055;-83
2022/05/17 10:09:06;;;;;;;0.00;0.00;;;28.10;41.70;;;;;;5066541;28;20032;-81
2022/05/17 10:11:57;;;;;;;0.00;0.00;;;28.10;41.90;;;;;;5065779;28;20028;-82
2022/05/17 10:14:40;;;;;;;0.47;0.47;;;28.30;42.30;;;;;;5065622;28;20123;-83
2022/05/17 10:17:30;;;;;;;0.00;0.00;;;27.90;43.90;;;;;;5041168;28;20475;-83
2022/05/17 10:20:05;;;;;;;0.10;0.10;;;28.10;43.30;;;;;;5071777;28;20058;-84
2022/05/17 10:22:44;;;;;;;1.65;0.98;;;28.20;42.10;;;;;;5082026;28;20050;-82
2022/05/17 10:26:01;;;;;;;0.00;0.00;;;28.20;41.50;;;;;;5075852;28;20036;-82
2022/05/17 10:28:38;;;;;;;0.10;0.10;;;28.30;41.30;;;;;;5060086;28;20052;-81
2022/05/17 10:31:20;;;;;;;0.00;0.00;;;27.90;42.70;;;;;;5081587;28;20016;-82
2022/05/17 10:34:10;;;;;;;0.00;0.00;;;28.00;43.00;;;;;;5084390;28;20016;-82
2022/05/17 10:36:47;;;;;;;0.25;0.25;;;28.00;42.90;;;;;;5084593;28;20036;-82
2022/05/17 10:39:25;;;;;;;0.00;0.00;;;27.50;43.60;;;;;;5080613;28;20032;-81
2022/05/17 10:41:57;;;;;;;0.00;0.00;;;27.80;43.30;;;;;;5077824;28;20028;-81
2022/05/17 10:47:53;;;;;;;0.00;0.00;;;27.90;43.90;;;;;;5063539;28;20039;-82
2022/05/17 10:50:27;;;;;;;0.00;0.00;;;27.90;44.80;;;;;;5073845;28;20029;-81
2022/05/17 10:53:01;;;;;;;0.10;0.10;;;27.50;46.60;;;;;;5072764;28;20079;-82
2022/05/17 10:56:07;;;;;;;0.55;0.20;;;27.60;47.80;;;;;;5040800;28;20087;-81
2022/05/17 10:58:36;;;;;;;0.00;0.00;;;27.60;46.20;;;;;;5061983;28;20430;-81
2022/05/17 11:01:09;;;;;;;0.00;0.00;;;27.40;48.50;;;;;;5067015;28;20101;-82
2022/05/17 11:04:29;;;;;;;0.00;0.00;;;27.40;47.20;;;;;;5061367;28;20029;-82
2022/05/17 11:07:20;;;;;;;0.00;0.00;;;27.40;47.40;;;;;;5015222;28;20061;-82
2022/05/17 11:10:24;;;;;;;0.00;0.00;;;27.40;48.50;;;;;;5057275;28;20083;-82
2022/05/17 11:12:56;;;;;;;0.55;0.55;;;27.20;50.80;;;;;;5030987;28;20099;-81
2022/05/17 11:15:32;;;;;;;0.10;0.10;;;27.20;49.40;;;;;;5060230;28;20029;-81
2022/05/17 11:18:20;;;;;;;0.20;0.20;;;27.10;48.70;;;;;;5047089;28;20510;-81
2022/05/17 11:21:11;;;;;;;0.00;0.00;;;27.00;49.00;;;;;;5063851;28;20100;-81
2022/05/17 11:23:53;;;;;;;0.00;0.00;;;26.70;48.90;;;;;;5059198;28;20471;-81
2022/05/17 11:27:02;;;;;;;0.30;0.30;;;26.60;49.30;;;;;;5047899;28;20443;-83
2022/05/17 11:29:45;;;;;;;0.00;0.00;;;26.60;50.70;;;;;;5057366;28;20096;-82
2022/05/17 11:32:28;;;;;;;0.00;0.00;;;26.50;51.90;;;;;;5046283;28;20029;-82
2022/05/17 11:35:35;;;;;;;0.20;0.20;;;26.30;51.40;;;;;;5065482;28;20035;-86
2022/05/17 11:38:07;;;;;;;0.00;0.00;;;26.40;52.50;;;;;;5028543;28;20028;-81
2022/05/17 11:41:06;;;;;;;;;;;;;;;;;;;;;
2022/05/17 11:43:51;;;;;;;0.08;0.08;;;26.50;53.00;;;;;;5069264;28;20386;-81
2022/05/17 11:46:30;;;;;;;1.08;1.08;;;26.50;51.20;;;;;;5037047;28;20395;-82
2022/05/17 11:49:11;;;;;;;0.00;0.00;;;26.30;52.00;;;;;;5071210;28;20476;-82
2022/05/17 11:51:57;;;;;;;0.00;0.00;;;26.10;51.50;;;;;;5080444;28;20134;-82
2022/05/17 11:54:44;;;;;;;0.22;0.22;;;26.00;51.70;;;;;;5061803;28;20089;-83
2022/05/17 11:57:33;;;;;;;0.22;0.22;;;26.10;50.80;;;;;;5050638;28;20079;-82
2022/05/17 12:00:27;;;;;;;0.00;0.00;;;26.10;50.60;;;;;;5080406;28;20036;-81
2022/05/17 12:03:22;;;;;;;0.00;0.00;;;26.10;50.90;;;;;;5079540;28;20112;-79
2022/05/17 12:06:29;;;;;;;0.00;0.00;;;26.30;50.60;;;;;;5077816;28;20035;-81
2022/05/17 12:08:55;;;;;;;0.00;0.00;;;26.50;50.70;;;;;;5075779;28;20534;-82
2022/05/17 12:11:34;;;;;;;0.00;0.00;;;26.50;49.90;;;;;;5070940;28;20036;-81
2022/05/17 12:14:10;;;;;;;0.00;0.00;;;26.20;50.60;;;;;;5075347;28;20108;-81
2022/05/17 12:16:47;;;;;;;14.10;2.65;;;26.20;50.10;;;;;;5045477;28;20025;-82
2022/05/17 12:19:41;;;;;;;0.00;0.00;;;26.10;50.70;;;;;;5072873;28;20028;-83
2022/05/17 12:22:20;;;;;;;0.08;0.08;;;26.20;51.10;;;;;;5029643;28;20043;-82
2022/05/17 12:25:12;;;;;;;0.10;0.10;;;26.10;50.60;;;;;;5069913;28;20033;-82
2022/05/17 12:27:45;;;;;;;0.00;0.00;;;26.10;51.50;;;;;;5070248;28;20115;-81
2022/05/17 12:30:54;;;;;;;0.20;0.20;;;26.00;49.50;;;;;;5052617;28;20025;-82
2022/05/17 12:33:27;;;;;;;1.73;1.67;;;26.00;49.20;;;;;;5072416;28;20059;-81
2022/05/17 12:36:09;;;;;;;0.00;0.00;;;25.70;50.60;;;;;;5059774;28;20032;-82
2022/05/17 12:45:18;;;;;;;0.00;0.00;;;25.40;48.00;;;;;;5072225;28;20155;-81
2022/05/17 12:47:51;;;;;;;5.25;4.80;;;25.40;47.40;;;;;;5056965;28;20398;-81
2022/05/17 12:50:21;;;;;;;0.00;0.00;;;25.40;46.70;;;;;;5066743;28;20396;-82
2022/05/17 12:52:56;;;;;;;0.00;0.00;;;25.40;46.80;;;;;;5060384;28;20016;-82
2022/05/17 12:55:29;;;;;;;0.05;0.05;;;25.20;46.00;;;;;;5072151;28;20055;-83
2022/05/17 12:58:07;;;;;;;0.00;0.00;;;25.20;46.50;;;;;;5068560;28;20021;-82
2022/05/17 13:00:33;;;;;;;0.00;0.00;;;25.00;46.30;;;;;;5041191;28;20038;-82
2022/05/17 13:03:02;;;;;;;0.00;0.00;;;24.90;46.70;;;;;;5070101;28;20040;-82
2022/05/17 13:05:32;;;;;;;0.00;0.00;;;25.00;46.50;;;;;;5065882;28;20115;-82
2022/05/17 13:08:23;;;;;;;0.00;0.00;;;24.80;47.80;;;;;;5061533;28;20028;-82
2022/05/17 13:11:15;;;;;;;0.00;0.00;;;24.60;48.20;;;;;;5046345;28;20040;-80
2022/05/17 13:14:03;;;;;;;0.00;0.00;;;24.60;47.50;;;;;;5067285;28;20045;-83
2022/05/17 13:16:35;;;;;;;0.00;0.00;;;24.50;47.30;;;;;;5064072;28;20119;-81
2022/05/17 13:19:07;;;;;;;0.00;0.00;;;24.70;46.20;;;;;;5069184;28;20058;-82
2022/05/17 13:21:51;;;;;;;0.00;0.00;;;24.60;46.30;;;;;;5056108;28;20032;-81
2022/05/17 13:24:23;;;;;;;2.10;0.75;;;24.60;47.30;;;;;;5068133;28;20074;-81
2022/05/17 13:26:49;;;;;;;0.00;0.00;;;24.40;47.00;;;;;;5069181;28;20071;-81
2022/05/17 13:29:40;;;;;;;0.00;0.00;;;24.40;47.40;;;;;;5069394;28;20024;-82
2022/05/17 13:32:19;;;;;;;0.52;0.28;;;24.30;47.80;;;;;;5064299;28;20558;-82
2022/05/17 13:34:46;;;;;;;0.00;0.00;;;24.30;48.60;;;;;;5058525;28;20480;-82
2022/05/17 13:37:21;;;;;;;0.00;0.00;;;24.00;49.00;;;;;;5041326;28;20627;-82
2022/05/17 13:39:58;;;;;;;0.00;0.00;;;24.00;49.70;;;;;;5069382;28;20058;-81
2022/05/17 13:42:34;;;;;;;0.00;0.00;;;23.60;50.40;;;;;;5047418;28;20056;-81
2022/05/17 13:45:04;;;;;;;0.00;0.00;;;23.40;51.40;;;;;;5062339;28;20510;-81
2022/05/17 13:47:42;;;;;;;0.00;0.00;;;23.20;52.70;;;;;;5066766;28;20021;-81
2022/05/17 13:50:12;;;;;;;0.00;0.00;;;23.20;52.90;;;;;;5067149;28;20020;-83
2022/05/17 13:52:48;;;;;;;0.00;0.00;;;23.10;52.90;;;;;;5072441;28;20020;-83